createdAt,value
2019-01-29T00:01:45.541Z,15.10
2019-01-29T00:04:17.882Z,11.17
2019-01-29T00:06:50.333Z,17.93
2019-01-29T00:09:22.939Z,15.33
2019-01-29T00:11:55.254Z,12.57
2019-01-29T00:14:27.604Z,14.27
2019-01-29T00:17:00.212Z,15.33
2019-01-29T00:19:32.706Z,15.03
2019-01-29T00:22:05.032Z,14.60
2019-01-29T00:24:37.328Z,15.23
2019-01-29T00:27:09.781Z,17.10
2019-01-29T00:29:42.656Z,13.63
2019-01-29T00:32:15.026Z,17.03
2019-01-29T00:34:47.811Z,15.37
2019-01-29T00:37:20.212Z,16.90
2019-01-29T00:39:52.816Z,17.87
2019-01-29T00:42:25.133Z,17.93
2019-01-29T00:44:57.409Z,19.10
2019-01-29T00:47:29.812Z,16.13
2019-01-29T00:50:02.331Z,19.30
2019-01-29T00:52:41.819Z,17.23
2019-01-29T00:55:09.429Z,22.40
2019-01-29T00:57:41.709Z,17.13
2019-01-29T01:00:21.117Z,17.53
2019-01-29T01:02:53.626Z,18.57
2019-01-29T01:05:26.029Z,16.40
2019-01-29T01:07:58.401Z,14.50
2019-01-29T01:10:30.632Z,17.37
2019-01-29T01:13:03.032Z,14.77
2019-01-29T01:15:35.520Z,10.77
2019-01-29T01:18:08.309Z,12.47
2019-01-29T01:20:40.705Z,9.53
2019-01-29T01:23:13.130Z,11.90
2019-01-29T01:25:45.216Z,9.07
2019-01-29T01:28:17.615Z,11.20
2019-01-29T01:30:49.931Z,8.37
2019-01-29T01:33:22.232Z,12.37
2019-01-29T01:35:54.596Z,10.93
2019-01-29T01:38:27.219Z,12.07
2019-01-29T01:41:00.522Z,10.20
2019-01-29T01:43:32.822Z,11.77
2019-01-29T01:46:05.480Z,12.30
2019-01-29T01:48:37.967Z,11.53
2019-01-29T01:51:10.275Z,10.47
2019-01-29T01:53:42.470Z,12.57
2019-01-29T01:56:14.728Z,9.67
2019-01-29T01:58:47.005Z,10.17
2019-01-29T02:01:19.318Z,11.83
2019-01-29T02:03:51.757Z,9.40
2019-01-29T02:06:24.086Z,8.77
2019-01-29T02:08:56.290Z,11.07
2019-01-29T02:11:28.697Z,8.50
2019-01-29T02:14:01.282Z,10.10
2019-01-29T02:16:33.741Z,7.90
2019-01-29T02:19:06.131Z,8.40
2019-01-29T02:21:38.308Z,8.07
2019-01-29T02:24:10.697Z,8.60
2019-01-29T02:26:42.773Z,7.77
2019-01-29T02:29:14.888Z,9.93
2019-01-29T02:31:47.073Z,9.13
2019-01-29T02:34:19.381Z,4.63
2019-01-29T02:36:51.773Z,9.20
2019-01-29T02:39:23.848Z,8.07
2019-01-29T02:41:56.149Z,7.77
2019-01-29T02:44:28.532Z,7.80
2019-01-29T02:47:01.101Z,7.40
2019-01-29T02:49:33.302Z,7.50
2019-01-29T02:52:05.580Z,8.27
2019-01-29T02:54:37.836Z,9.03
2019-01-29T02:57:10.257Z,5.80
2019-01-29T02:59:42.556Z,5.07
2019-01-29T03:02:15.115Z,7.50
2019-01-29T03:04:47.724Z,6.60
2019-01-29T03:07:20.011Z,5.63
2019-01-29T03:09:52.343Z,5.87
2019-01-29T03:12:24.558Z,6.60
2019-01-29T03:14:56.954Z,6.40
2019-01-29T03:17:29.680Z,5.10
2019-01-29T03:20:01.950Z,5.77
2019-01-29T03:22:34.263Z,6.07
2019-01-29T03:25:07.809Z,6.07
2019-01-29T03:27:40.121Z,6.33
2019-01-29T03:30:13.781Z,6.33
2019-01-29T03:32:46.479Z,8.23
2019-01-29T03:35:18.981Z,5.93
2019-01-29T03:37:51.253Z,7.47
2019-01-29T03:40:25.293Z,8.03
2019-01-29T03:42:57.587Z,7.50
2019-01-29T03:45:29.999Z,7.63
2019-01-29T03:48:02.089Z,8.37
2019-01-29T03:50:34.412Z,7.97
2019-01-29T03:53:06.784Z,9.40
2019-01-29T03:55:38.992Z,7.60
2019-01-29T03:58:11.348Z,8.93
2019-01-29T04:00:43.656Z,9.53
2019-01-29T04:03:15.777Z,10.67
2019-01-29T04:05:48.168Z,10.37
2019-01-29T04:08:20.438Z,7.40
2019-01-29T04:10:52.662Z,7.90
2019-01-29T04:13:25.185Z,8.87
2019-01-29T04:15:57.670Z,11.00
2019-01-29T04:18:29.984Z,12.27
2019-01-29T04:21:02.557Z,11.40
2019-01-29T04:23:34.623Z,9.67
2019-01-29T04:26:06.831Z,10.17
2019-01-29T04:28:39.139Z,10.70
2019-01-29T04:31:11.623Z,12.33
2019-01-29T04:33:43.850Z,13.00
2019-01-29T04:36:16.024Z,9.57
2019-01-29T04:38:48.348Z,11.47
2019-01-29T04:41:20.616Z,10.33
2019-01-29T04:43:53.117Z,13.80
2019-01-29T04:46:25.510Z,13.40
2019-01-29T04:48:57.913Z,14.43
2019-01-29T04:51:30.172Z,11.73
2019-01-29T04:54:02.587Z,11.00
2019-01-29T04:56:34.779Z,13.77
2019-01-29T04:59:07.093Z,14.60
2019-01-29T05:01:39.369Z,10.80
2019-01-29T05:04:11.676Z,12.10
2019-01-29T05:06:43.891Z,11.93
2019-01-29T05:09:15.998Z,8.63
2019-01-29T05:11:48.768Z,7.23
2019-01-29T05:14:20.960Z,11.70
2019-01-29T05:16:53.394Z,10.07
2019-01-29T05:19:25.600Z,8.10
2019-01-29T05:21:57.937Z,8.93
2019-01-29T05:24:30.131Z,8.97
2019-01-29T05:27:02.424Z,8.17
2019-01-29T05:29:34.848Z,10.37
2019-01-29T05:32:07.241Z,9.97
2019-01-29T05:34:39.477Z,9.33
2019-01-29T05:37:11.555Z,10.37
2019-01-29T05:39:43.716Z,11.10
2019-01-29T05:42:15.997Z,5.80
2019-01-29T05:44:48.323Z,9.73
2019-01-29T05:47:20.912Z,10.13
2019-01-29T05:49:53.244Z,7.80
2019-01-29T05:52:25.433Z,8.47
2019-01-29T05:54:59.722Z,11.10
2019-01-29T05:57:31.813Z,8.70
2019-01-29T06:00:06.210Z,11.27
2019-01-29T06:02:38.281Z,10.33
2019-01-29T06:05:10.980Z,9.07
2019-01-29T06:07:43.369Z,8.40
2019-01-29T06:10:16.479Z,11.23
2019-01-29T06:12:48.768Z,8.83
2019-01-29T06:15:21.155Z,9.77
2019-01-29T06:17:53.429Z,9.37
2019-01-29T06:20:26.407Z,9.50
2019-01-29T06:22:59.221Z,7.47
2019-01-29T06:25:31.683Z,11.53
2019-01-29T06:28:04.271Z,9.20
2019-01-29T06:30:36.854Z,6.87
2019-01-29T06:33:09.426Z,7.43
2019-01-29T06:35:41.639Z,6.33
2019-01-29T06:38:13.817Z,7.27
2019-01-29T06:40:46.186Z,9.03
2019-01-29T06:43:18.360Z,8.13
2019-01-29T06:45:50.480Z,8.43
2019-01-29T06:48:23.036Z,7.83
2019-01-29T06:50:55.321Z,8.00
2019-01-29T06:53:27.974Z,8.73
2019-01-29T06:56:00.538Z,8.30
2019-01-29T06:58:33.250Z,11.27
2019-01-29T07:01:06.276Z,7.20
2019-01-29T07:03:38.461Z,8.00
2019-01-29T07:06:10.878Z,9.37
2019-01-29T07:08:43.760Z,7.53
2019-01-29T07:11:16.426Z,7.97
2019-01-29T07:13:48.721Z,9.83
2019-01-29T07:16:46.757Z,11.73
2019-01-29T07:19:29.224Z,8.13
2019-01-29T07:22:01.924Z,10.67
2019-01-29T07:24:42.430Z,8.13
2019-01-29T07:27:08.513Z,13.03
2019-01-29T07:29:40.604Z,8.40
2019-01-29T07:32:13.098Z,9.13
2019-01-29T07:34:45.448Z,10.63
2019-01-29T07:37:21.929Z,6.73
2019-01-29T07:39:51.615Z,10.37
2019-01-29T07:42:23.871Z,11.50
2019-01-29T07:44:56.188Z,11.93
2019-01-29T07:47:28.594Z,9.13
2019-01-29T07:50:01.218Z,9.57
2019-01-29T07:52:33.646Z,12.67
2019-01-29T07:55:06.212Z,11.53
2019-01-29T07:57:38.504Z,14.93
2019-01-29T08:00:11.257Z,12.03
2019-01-29T08:02:43.507Z,12.83
2019-01-29T08:05:16.113Z,11.07
2019-01-29T08:07:48.477Z,13.63
2019-01-29T08:10:20.944Z,11.97
2019-01-29T08:12:53.476Z,15.13
2019-01-29T08:15:25.890Z,11.73
2019-01-29T08:17:58.322Z,17.33
2019-01-29T08:20:30.721Z,11.87
2019-01-29T08:23:03.278Z,14.33
2019-01-29T08:25:35.859Z,13.87
2019-01-29T08:28:08.477Z,10.17
2019-01-29T08:30:40.894Z,17.07
2019-01-29T08:33:13.118Z,16.10
2019-01-29T08:35:45.526Z,16.50
2019-01-29T08:38:18.017Z,12.27
2019-01-29T08:40:50.296Z,16.40
2019-01-29T08:43:22.609Z,13.97
2019-01-29T08:45:54.875Z,14.63
2019-01-29T08:48:27.093Z,10.17
2019-01-29T08:50:59.372Z,12.03
2019-01-29T08:53:31.684Z,11.87
2019-01-29T08:56:04.362Z,11.03
2019-01-29T08:58:36.958Z,14.47
2019-01-29T09:01:09.380Z,10.53
2019-01-29T09:03:41.682Z,14.03
2019-01-29T09:06:14.278Z,10.20
2019-01-29T09:08:46.791Z,7.50
2019-01-29T09:11:19.240Z,10.63
2019-01-29T09:13:51.516Z,12.30
2019-01-29T09:16:24.106Z,8.40
2019-01-29T09:18:56.288Z,7.97
2019-01-29T09:21:28.872Z,15.80
2019-01-29T09:24:01.263Z,10.83
2019-01-29T09:26:33.886Z,11.77
2019-01-29T09:29:06.541Z,11.33
2019-01-29T09:31:39.135Z,15.93
2019-01-29T09:34:11.589Z,12.43
2019-01-29T09:36:44.016Z,13.57
2019-01-29T09:39:16.472Z,18.63
2019-01-29T09:41:49.051Z,12.77
2019-01-29T09:44:21.948Z,11.57
2019-01-29T09:46:57.176Z,10.53
2019-01-29T09:49:29.758Z,12.97
2019-01-29T09:52:02.529Z,12.03
2019-01-29T09:54:35.155Z,12.33
2019-01-29T09:57:07.882Z,7.87
2019-01-29T09:59:40.622Z,10.27
2019-01-29T10:02:13.012Z,13.03
2019-01-29T10:04:45.230Z,14.37
2019-01-29T10:07:17.796Z,13.40
2019-01-29T10:09:50.182Z,13.23
2019-01-29T10:12:22.694Z,11.90
2019-01-29T10:14:55.914Z,14.00
2019-01-29T10:17:28.497Z,12.33
2019-01-29T10:20:02.941Z,13.53
2019-01-29T10:22:35.030Z,12.93
2019-01-29T10:25:09.049Z,14.30
2019-01-29T10:27:41.646Z,11.37
2019-01-29T10:30:14.212Z,9.53
2019-01-29T10:32:46.888Z,10.73
2019-01-29T10:35:20.127Z,4.93
2019-01-29T10:37:52.787Z,14.10
2019-01-29T10:40:25.561Z,11.67
2019-01-29T10:42:58.261Z,12.57
2019-01-29T10:45:30.750Z,9.57
2019-01-29T10:48:03.357Z,6.67
2019-01-29T10:50:35.753Z,11.27
2019-01-29T10:53:07.949Z,8.50
2019-01-29T10:55:46.932Z,10.27
2019-01-29T10:58:14.630Z,17.00
2019-01-29T11:00:47.340Z,8.37
2019-01-29T11:03:19.733Z,15.10
2019-01-29T11:05:52.260Z,9.80
2019-01-29T11:08:24.784Z,9.03
2019-01-29T11:10:57.317Z,13.27
2019-01-29T11:13:29.712Z,16.63
2019-01-29T11:16:02.077Z,7.53
2019-01-29T11:18:34.420Z,10.13
2019-01-29T11:21:06.821Z,10.13
2019-01-29T11:23:39.566Z,13.13
2019-01-29T11:26:11.984Z,7.93
2019-01-29T11:28:44.499Z,13.90
2019-01-29T11:31:17.044Z,12.17
2019-01-29T11:33:49.707Z,15.47
2019-01-29T11:36:22.119Z,11.57
2019-01-29T11:38:54.496Z,14.37
2019-01-29T11:41:27.030Z,12.87
2019-01-29T11:44:00.540Z,16.30
2019-01-29T11:46:32.875Z,12.00
2019-01-29T11:49:05.317Z,15.70
2019-01-29T11:51:37.596Z,15.17
2019-01-29T11:54:11.123Z,14.27
2019-01-29T11:56:43.654Z,19.27
2019-01-29T11:59:16.443Z,13.77
2019-01-29T12:01:48.969Z,15.77
2019-01-29T12:04:21.356Z,16.20
2019-01-29T12:06:53.717Z,15.67
2019-01-29T12:09:25.914Z,12.37
2019-01-29T12:11:58.097Z,14.30
2019-01-29T12:14:30.595Z,12.73
2019-01-29T12:17:03.164Z,12.03
2019-01-29T12:19:35.885Z,14.30
2019-01-29T12:22:08.493Z,12.63
2019-01-29T12:24:40.827Z,9.93
2019-01-29T12:27:13.111Z,11.97
2019-01-29T12:29:45.442Z,13.30
2019-01-29T12:32:17.853Z,10.07
2019-01-29T12:34:50.090Z,9.57
2019-01-29T12:37:22.539Z,12.07
2019-01-29T12:39:55.489Z,11.63
2019-01-29T12:42:27.753Z,9.30
2019-01-29T12:45:00.252Z,8.87
2019-01-29T12:47:32.709Z,12.00
2019-01-29T12:50:07.396Z,14.47
2019-01-29T12:53:03.671Z,10.37
2019-01-29T12:55:35.842Z,10.33
2019-01-29T12:58:08.161Z,11.43
2019-01-29T13:00:44.285Z,12.97
2019-01-29T13:03:16.704Z,9.40
2019-01-29T13:05:49.292Z,8.97
2019-01-29T13:08:21.677Z,11.83
2019-01-29T13:10:54.249Z,9.33
2019-01-29T13:13:26.676Z,9.70
2019-01-29T13:15:59.098Z,11.10
2019-01-29T13:18:31.614Z,10.30
2019-01-29T13:21:03.972Z,11.17
2019-01-29T13:23:36.405Z,6.13
2019-01-29T13:26:08.590Z,10.67
2019-01-29T13:28:41.280Z,10.00
2019-01-29T13:31:13.836Z,7.93
2019-01-29T13:33:46.222Z,9.37
2019-01-29T13:36:18.662Z,12.03
2019-01-29T13:38:51.338Z,8.40
2019-01-29T13:41:24.027Z,7.13
2019-01-29T13:43:56.317Z,9.47
2019-01-29T13:46:28.785Z,7.63
2019-01-29T13:49:01.057Z,9.10
2019-01-29T13:51:33.440Z,9.37
2019-01-29T13:54:05.762Z,8.93
2019-01-29T13:56:39.050Z,6.57
2019-01-29T13:59:11.561Z,9.17
2019-01-29T14:01:44.006Z,7.40
2019-01-29T14:04:16.116Z,8.80
2019-01-29T14:06:48.937Z,8.27
2019-01-29T14:09:21.464Z,8.10
2019-01-29T14:11:53.994Z,10.67
2019-01-29T14:14:28.341Z,9.67
2019-01-29T14:17:01.099Z,7.97
2019-01-29T14:19:33.774Z,6.13
2019-01-29T14:22:06.480Z,14.63
2019-01-29T14:24:39.339Z,8.83
2019-01-29T14:27:11.651Z,9.97
2019-01-29T14:29:44.249Z,13.87
2019-01-29T14:32:16.676Z,15.60
2019-01-29T14:34:48.885Z,11.70
2019-01-29T14:37:21.321Z,12.10
2019-01-29T14:40:22.080Z,8.23
2019-01-29T14:42:54.772Z,11.47
2019-01-29T14:45:27.321Z,7.03
2019-01-29T14:47:59.536Z,7.20
2019-01-29T14:50:32.012Z,7.27
2019-01-29T14:53:04.411Z,6.20
2019-01-29T14:55:36.767Z,8.43
2019-01-29T14:58:08.940Z,9.47
2019-01-29T15:00:42.047Z,7.33
2019-01-29T15:03:14.632Z,11.50
2019-01-29T15:05:46.845Z,7.60
2019-01-29T15:08:19.091Z,9.83
2019-01-29T15:10:51.716Z,10.87
2019-01-29T15:13:24.188Z,5.70
2019-01-29T15:16:02.966Z,10.27
2019-01-29T15:18:39.571Z,12.90
2019-01-29T15:21:12.252Z,6.53
2019-01-29T15:23:44.855Z,9.10
2019-01-29T15:26:17.086Z,9.63
2019-01-29T15:28:49.579Z,10.13
2019-01-29T15:31:22.118Z,13.70
2019-01-29T15:33:54.797Z,11.90
2019-01-29T15:36:27.197Z,9.20
2019-01-29T15:38:59.568Z,11.53
2019-01-29T15:41:31.896Z,14.27
2019-01-29T15:44:04.533Z,10.17
2019-01-29T15:46:37.387Z,15.23
2019-01-29T15:49:09.765Z,11.90
2019-01-29T15:51:42.220Z,13.27
2019-01-29T15:54:14.376Z,21.07
2019-01-29T15:56:48.106Z,13.03
2019-01-29T15:59:20.887Z,15.10
2019-01-29T16:01:53.490Z,14.40
2019-01-29T16:04:25.884Z,9.57
2019-01-29T16:06:58.750Z,12.40
2019-01-29T16:09:31.040Z,9.23
2019-01-29T16:12:03.498Z,17.00
2019-01-29T16:14:35.939Z,15.17
2019-01-29T16:17:08.540Z,11.63
2019-01-29T16:19:40.820Z,11.23
2019-01-29T16:22:13.247Z,11.67
2019-01-29T16:24:45.710Z,17.57
2019-01-29T16:27:22.781Z,19.23
2019-01-29T16:29:51.980Z,12.27
2019-01-29T16:32:24.090Z,18.37
2019-01-29T16:34:56.458Z,16.07
2019-01-29T16:37:28.921Z,12.70
2019-01-29T16:40:03.044Z,17.97
2019-01-29T16:42:35.291Z,15.23
2019-01-29T16:45:08.857Z,14.00
2019-01-29T16:47:41.289Z,15.47
2019-01-29T16:50:14.776Z,13.17
2019-01-29T16:52:47.036Z,14.17
2019-01-29T16:55:19.742Z,11.67
2019-01-29T16:57:52.770Z,13.23
2019-01-29T17:00:26.826Z,16.50
2019-01-29T17:02:59.861Z,14.90
2019-01-29T17:05:32.309Z,15.27
2019-01-29T17:08:04.746Z,12.07
2019-01-29T17:10:37.114Z,12.53
2019-01-29T17:13:10.117Z,14.73
2019-01-29T17:15:42.610Z,13.77
2019-01-29T17:18:15.395Z,12.70
2019-01-29T17:20:47.560Z,11.80
2019-01-29T17:23:20.168Z,11.43
2019-01-29T17:25:52.367Z,26.37
2019-01-29T17:28:24.724Z,18.27
2019-01-29T17:30:56.989Z,26.60
2019-01-29T17:33:29.555Z,18.87
2019-01-29T17:36:01.839Z,20.73
2019-01-29T17:38:34.201Z,13.93
2019-01-29T17:41:06.405Z,13.87
2019-01-29T17:43:38.742Z,11.60
2019-01-29T17:46:11.050Z,14.50
2019-01-29T17:48:43.528Z,14.33
2019-01-29T17:51:15.965Z,12.30
2019-01-29T17:53:48.163Z,15.37
2019-01-29T17:56:20.513Z,10.80
2019-01-29T17:58:52.814Z,16.00
2019-01-29T18:01:25.127Z,14.27
2019-01-29T18:03:57.634Z,35.43
2019-01-29T18:06:29.933Z,17.87
2019-01-29T18:09:05.504Z,16.07
2019-01-29T18:11:37.876Z,20.00
2019-01-29T18:14:10.564Z,17.70
2019-01-29T18:16:43.021Z,25.50
2019-01-29T18:19:15.152Z,24.50
2019-01-29T18:21:56.713Z,40.70
2019-01-29T18:24:21.542Z,24.63
2019-01-29T18:26:53.898Z,34.27
2019-01-29T18:29:26.124Z,26.37
2019-01-29T18:31:58.375Z,28.27
2019-01-29T18:34:30.560Z,15.13
2019-01-29T18:37:02.988Z,22.90
2019-01-29T18:39:35.310Z,31.93
2019-01-29T18:42:07.688Z,25.63
2019-01-29T18:44:40.078Z,19.13
2019-01-29T18:47:12.877Z,14.83
2019-01-29T18:49:45.321Z,17.13
2019-01-29T18:52:17.586Z,17.63
2019-01-29T18:54:50.006Z,17.70
2019-01-29T18:57:22.777Z,11.83
2019-01-29T18:59:55.086Z,64.37
2019-01-29T19:02:27.463Z,26.43
2019-01-29T19:04:59.738Z,18.83
2019-01-29T19:07:32.057Z,19.57
2019-01-29T19:10:04.955Z,14.97
2019-01-29T19:12:37.709Z,14.37
2019-01-29T19:15:13.100Z,23.17
2019-01-29T19:17:45.504Z,29.77
2019-01-29T19:20:19.565Z,78.77
2019-01-29T19:22:51.879Z,48.50
2019-01-29T19:25:24.340Z,37.30
2019-01-29T19:27:56.626Z,38.40
2019-01-29T19:30:30.376Z,27.83
2019-01-29T19:33:02.936Z,33.07
2019-01-29T19:35:35.264Z,29.00
2019-01-29T19:38:07.708Z,24.27
2019-01-29T19:40:40.481Z,24.97
2019-01-29T19:43:13.737Z,20.20
2019-01-29T19:45:46.106Z,16.77
2019-01-29T19:48:18.205Z,20.23
2019-01-29T19:50:50.866Z,14.90
2019-01-29T19:53:23.098Z,18.37
2019-01-29T19:55:55.652Z,19.97
2019-01-29T19:58:32.281Z,15.30
2019-01-29T20:01:02.181Z,13.53
2019-01-29T20:03:34.382Z,15.07
2019-01-29T20:06:06.506Z,13.30
2019-01-29T20:08:38.813Z,12.73
2019-01-29T20:11:11.343Z,8.63
2019-01-29T20:13:43.793Z,11.27
2019-01-29T20:16:16.428Z,11.57
2019-01-29T20:18:49.051Z,14.03
2019-01-29T20:21:21.506Z,12.70
2019-01-29T20:23:53.883Z,14.57
2019-01-29T20:26:26.294Z,12.53
2019-01-29T20:28:58.484Z,16.47
2019-01-29T20:31:30.742Z,15.10
2019-01-29T20:34:03.096Z,12.50
2019-01-29T20:36:35.228Z,18.43
2019-01-29T20:39:08.366Z,20.33
2019-01-29T20:41:40.700Z,12.70
2019-01-29T20:44:12.909Z,13.00
2019-01-29T20:46:45.013Z,11.53
2019-01-29T20:49:18.926Z,14.00
2019-01-29T20:51:51.305Z,9.70
2019-01-29T20:54:23.766Z,11.90
2019-01-29T20:56:56.200Z,11.13
2019-01-29T20:59:28.397Z,10.73
2019-01-29T21:02:00.489Z,8.90
2019-01-29T21:04:32.889Z,8.93
2019-01-29T21:07:05.435Z,9.93
2019-01-29T21:09:37.771Z,10.13
2019-01-29T21:12:10.098Z,13.07
2019-01-29T21:14:42.364Z,12.60
2019-01-29T21:17:14.589Z,13.63
2019-01-29T21:19:46.867Z,10.50
2019-01-29T21:22:19.547Z,9.40
2019-01-29T21:24:51.974Z,8.33
2019-01-29T21:27:24.432Z,14.20
2019-01-29T21:29:56.677Z,13.13
2019-01-29T21:32:28.930Z,13.63
2019-01-29T21:35:01.208Z,10.23
2019-01-29T21:37:33.665Z,10.67
2019-01-29T21:40:07.428Z,10.63
2019-01-29T21:42:39.634Z,13.37
2019-01-29T21:45:12.560Z,15.57
2019-01-29T21:47:44.943Z,14.57
2019-01-29T21:50:19.733Z,14.40
2019-01-29T21:52:52.093Z,13.47
2019-01-29T21:55:24.520Z,9.70
2019-01-29T21:57:56.923Z,12.33
2019-01-29T22:00:47.354Z,11.53
2019-01-29T22:03:19.523Z,12.93
2019-01-29T22:05:52.130Z,12.33
2019-01-29T22:08:24.407Z,12.20
2019-01-29T22:10:56.517Z,14.53
2019-01-29T22:13:29.168Z,16.30
2019-01-29T22:16:01.365Z,10.43
2019-01-29T22:18:33.433Z,11.17
2019-01-29T22:21:05.708Z,16.90
2019-01-29T22:23:37.982Z,19.20
2019-01-29T22:26:10.558Z,25.77
2019-01-29T22:28:42.657Z,25.10
2019-01-29T22:31:14.946Z,19.60
2019-01-29T22:33:47.414Z,24.30
2019-01-29T22:36:19.690Z,20.23
2019-01-29T22:38:51.863Z,17.83
2019-01-29T22:41:24.141Z,19.33
2019-01-29T22:43:56.248Z,14.67
2019-01-29T22:46:28.527Z,13.77
2019-01-29T22:49:01.015Z,14.53
2019-01-29T22:51:33.083Z,16.23
2019-01-29T22:54:05.479Z,14.43
2019-01-29T22:56:37.658Z,14.10
2019-01-29T22:59:10.262Z,13.90
2019-01-29T23:01:42.846Z,16.17
2019-01-29T23:04:23.686Z,14.67
2019-01-29T23:07:08.206Z,17.63
2019-01-29T23:09:40.557Z,19.93
2019-01-29T23:12:13.130Z,15.27
2019-01-29T23:14:45.649Z,16.87
2019-01-29T23:17:17.908Z,14.77
2019-01-29T23:19:50.102Z,19.60
2019-01-29T23:22:22.483Z,16.63
2019-01-29T23:24:54.784Z,17.40
2019-01-29T23:27:32.888Z,15.20
2019-01-29T23:30:08.559Z,19.33
2019-01-29T23:32:40.918Z,15.43
2019-01-29T23:35:13.211Z,16.73
2019-01-29T23:37:45.480Z,14.93
2019-01-29T23:40:18.051Z,15.90
2019-01-29T23:42:50.525Z,16.53
2019-01-29T23:45:22.761Z,11.97
2019-01-29T23:48:00.847Z,17.20
2019-01-29T23:50:33.168Z,20.40
2019-01-29T23:53:05.343Z,15.87
2019-01-29T23:55:37.665Z,21.47
2019-01-29T23:58:09.860Z,16.30
